Hovedside
METAR-TAF:

METAR-TAF

Lufthavner :

Uleåborg lufthavn

Uleåborg, Finland

breddegrad: 64-56N, lengdegrad: 025-22E, høyde over havet: 12 m

Gjeldene værobservasjon

Denne rapporten ble laget for 19 minutter siden, klokken 17:20 UTC
Vind 11 kt fra Vest
Temperatur 12°C
Luftfuktighet 62%
Trykk 1026 hPa
Sikt 10 km eller mer
ingen skyer under 1500 m og ingen bygeskyer

METAR: EFOU 261720Z AUTO 27011KT CAVOK 12/05 Q1026

Tid: 20:39 (17:39 UTC)

Varsel

Denne rapporten ble laget for 3 timer og 17 minutter siden, klokken 14:22 UTC
Varsel gyldig fra 26. klokken 15 UTC til 27. klokken 15 UTC
Vind 13 kt fra Vest-nordvest
Sikt 10 km eller mer
ingen skyer under 1500 m og ingen bygeskyer
Sannsynlighet 30%
fra 26. klokken 15 UTC til 26. klokken 17 UTC
Vind 15 kt fra Vest-nordvest med vindkast opp mot 25 kt

TAF: EFOU 261422Z 2615/2715 30013KT CAVOK PROB30 2615/2617 30015G25KT

Værobservasjoner og værvarsel for over 4000 flyplasser (METAR- og TAF-rapporter).

Tilgjengelige stasjoner er representert av de røde og gule prikkene på kartet.

Hold musepekeren over prikken for å se navnet på stasjonen.

Klikk så for å se værobservasjoner og -varsler.

For å forandre kartet kan du klikke på den grønne knappen med svart kryss for å zoome inn, på den grønne knappen med strek for å zoome ut, eller på de grønne pilene for å se tilstøtende kart.


METAR-TAF: